sensor_id;sensor_type;location;lat;lon;timestamp;P1;durP1;ratioP1;P2;durP2;ratioP2
19569;SDS011;9931;51.458;7.256;2024-03-08T00:01:04;72.35;;;47.22;;
19569;SDS011;9931;51.458;7.256;2024-03-08T00:03:31;88.00;;;80.57;;
19569;SDS011;9931;51.458;7.256;2024-03-08T00:05:57;48.05;;;34.00;;
19569;SDS011;9931;51.458;7.256;2024-03-08T00:08:22;52.08;;;43.03;;
19569;SDS011;9931;51.458;7.256;2024-03-08T00:10:48;49.93;;;37.80;;
19569;SDS011;9931;51.458;7.256;2024-03-08T00:13:13;59.92;;;39.20;;
19569;SDS011;9931;51.458;7.256;2024-03-08T00:15:38;55.40;;;50.13;;
19569;SDS011;9931;51.458;7.256;2024-03-08T00:18:03;53.05;;;47.47;;
19569;SDS011;9931;51.458;7.256;2024-03-08T00:20:29;44.25;;;24.17;;
19569;SDS011;9931;51.458;7.256;2024-03-08T00:22:54;62.00;;;44.37;;
19569;SDS011;9931;51.458;7.256;2024-03-08T00:25:22;55.20;;;50.22;;
19569;SDS011;9931;51.458;7.256;2024-03-08T00:27:48;85.75;;;77.90;;
19569;SDS011;9931;51.458;7.256;2024-03-08T00:30:14;66.25;;;54.28;;
19569;SDS011;9931;51.458;7.256;2024-03-08T00:32:39;58.17;;;48.17;;
19569;SDS011;9931;51.458;7.256;2024-03-08T00:35:05;71.40;;;62.92;;
19569;SDS011;9931;51.458;7.256;2024-03-08T00:37:32;87.57;;;57.88;;
19569;SDS011;9931;51.458;7.256;2024-03-08T00:39:59;90.88;;;57.13;;
19569;SDS011;9931;51.458;7.256;2024-03-08T00:42:24;68.97;;;57.87;;
19569;SDS011;9931;51.458;7.256;2024-03-08T00:44:49;71.03;;;63.67;;
19569;SDS011;9931;51.458;7.256;2024-03-08T00:47:16;55.25;;;40.25;;
19569;SDS011;9931;51.458;7.256;2024-03-08T00:49:41;53.67;;;45.10;;
19569;SDS011;9931;51.458;7.256;2024-03-08T00:52:06;50.80;;;34.70;;
19569;SDS011;9931;51.458;7.256;2024-03-08T00:54:32;68.35;;;61.50;;
19569;SDS011;9931;51.458;7.256;2024-03-08T00:56:57;53.47;;;42.25;;
19569;SDS011;9931;51.458;7.256;2024-03-08T00:59:23;131.02;;;52.92;;
19569;SDS011;9931;51.458;7.256;2024-03-08T01:01:48;57.70;;;49.83;;
19569;SDS011;9931;51.458;7.256;2024-03-08T01:04:14;109.47;;;97.37;;
19569;SDS011;9931;51.458;7.256;2024-03-08T01:06:39;65.07;;;56.10;;
19569;SDS011;9931;51.458;7.256;2024-03-08T01:09:04;94.13;;;85.35;;
19569;SDS011;9931;51.458;7.256;2024-03-08T01:11:32;33.60;;;20.60;;
19569;SDS011;9931;51.458;7.256;2024-03-08T01:13:57;181.18;;;166.68;;
19569;SDS011;9931;51.458;7.256;2024-03-08T01:16:22;75.10;;;68.28;;
19569;SDS011;9931;51.458;7.256;2024-03-08T01:18:47;107.32;;;90.78;;
19569;SDS011;9931;51.458;7.256;2024-03-08T01:21:12;84.70;;;75.77;;
19569;SDS011;9931;51.458;7.256;2024-03-08T01:23:38;140.20;;;129.43;;
19569;SDS011;9931;51.458;7.256;2024-03-08T01:26:03;136.25;;;119.55;;
19569;SDS011;9931;51.458;7.256;2024-03-08T01:28:28;75.25;;;68.25;;
19569;SDS011;9931;51.458;7.256;2024-03-08T01:30:53;67.75;;;61.10;;
19569;SDS011;9931;51.458;7.256;2024-03-08T01:33:25;111.82;;;101.63;;
19569;SDS011;9931;51.458;7.256;2024-03-08T01:35:53;83.80;;;49.67;;
19569;SDS011;9931;51.458;7.256;2024-03-08T01:38:18;50.70;;;38.83;;
19569;SDS011;9931;51.458;7.256;2024-03-08T01:40:44;80.07;;;72.22;;
19569;SDS011;9931;51.458;7.256;2024-03-08T01:43:19;113.95;;;86.00;;
19569;SDS011;9931;51.458;7.256;2024-03-08T01:45:45;49.35;;;43.35;;
19569;SDS011;9931;51.458;7.256;2024-03-08T01:48:10;62.97;;;55.38;;
19569;SDS011;9931;51.458;7.256;2024-03-08T01:50:35;41.65;;;21.42;;
19569;SDS011;9931;51.458;7.256;2024-03-08T01:53:01;98.95;;;90.72;;
19569;SDS011;9931;51.458;7.256;2024-03-08T01:55:27;83.32;;;69.63;;
19569;SDS011;9931;51.458;7.256;2024-03-08T01:57:52;111.15;;;68.68;;
19569;SDS011;9931;51.458;7.256;2024-03-08T02:00:18;82.25;;;74.57;;
19569;SDS011;9931;51.458;7.256;2024-03-08T02:02:44;139.23;;;128.25;;
19569;SDS011;9931;51.458;7.256;2024-03-08T02:05:10;99.50;;;90.78;;
19569;SDS011;9931;51.458;7.256;2024-03-08T02:07:35;138.70;;;124.25;;
19569;SDS011;9931;51.458;7.256;2024-03-08T02:10:01;51.55;;;44.50;;
19569;SDS011;9931;51.458;7.256;2024-03-08T02:12:26;83.07;;;73.43;;
19569;SDS011;9931;51.458;7.256;2024-03-08T02:14:51;85.25;;;77.70;;
19569;SDS011;9931;51.458;7.256;2024-03-08T02:17:18;83.57;;;75.32;;
19569;SDS011;9931;51.458;7.256;2024-03-08T02:19:44;158.20;;;146.33;;
19569;SDS011;9931;51.458;7.256;2024-03-08T02:22:09;167.67;;;155.07;;
19569;SDS011;9931;51.458;7.256;2024-03-08T02:24:34;77.78;;;70.57;;
19569;SDS011;9931;51.458;7.256;2024-03-08T02:26:59;128.40;;;118.28;;
19569;SDS011;9931;51.458;7.256;2024-03-08T02:29:25;91.67;;;83.37;;
19569;SDS011;9931;51.458;7.256;2024-03-08T02:31:53;91.63;;;81.97;;
19569;SDS011;9931;51.458;7.256;2024-03-08T02:34:21;67.90;;;52.35;;
19569;SDS011;9931;51.458;7.256;2024-03-08T02:36:47;132.35;;;122.38;;
19569;SDS011;9931;51.458;7.256;2024-03-08T02:39:12;82.93;;;56.57;;
19569;SDS011;9931;51.458;7.256;2024-03-08T02:41:37;133.27;;;120.57;;
19569;SDS011;9931;51.458;7.256;2024-03-08T02:44:02;110.28;;;99.70;;
19569;SDS011;9931;51.458;7.256;2024-03-08T02:46:28;147.07;;;133.98;;
19569;SDS011;9931;51.458;7.256;2024-03-08T02:48:55;108.82;;;73.18;;
19569;SDS011;9931;51.458;7.256;2024-03-08T02:51:20;95.80;;;87.13;;
19569;SDS011;9931;51.458;7.256;2024-03-08T02:53:45;89.55;;;81.70;;
19569;SDS011;9931;51.458;7.256;2024-03-08T02:56:13;98.40;;;90.25;;
19569;SDS011;9931;51.458;7.256;2024-03-08T02:58:41;100.15;;;91.57;;
19569;SDS011;9931;51.458;7.256;2024-03-08T03:01:07;179.35;;;166.25;;
19569;SDS011;9931;51.458;7.256;2024-03-08T03:03:33;106.13;;;96.18;;
19569;SDS011;9931;51.458;7.256;2024-03-08T03:05:58;102.13;;;92.60;;
19569;SDS011;9931;51.458;7.256;2024-03-08T03:08:23;108.73;;;100.63;;
19569;SDS011;9931;51.458;7.256;2024-03-08T03:10:48;116.40;;;108.28;;
19569;SDS011;9931;51.458;7.256;2024-03-08T03:13:14;113.25;;;101.07;;
19569;SDS011;9931;51.458;7.256;2024-03-08T03:15:39;155.33;;;143.33;;
19569;SDS011;9931;51.458;7.256;2024-03-08T03:18:06;132.07;;;121.40;;
19569;SDS011;9931;51.458;7.256;2024-03-08T03:20:32;89.60;;;82.82;;
19569;SDS011;9931;51.458;7.256;2024-03-08T03:22:58;127.55;;;117.35;;
19569;SDS011;9931;51.458;7.256;2024-03-08T03:25:26;146.95;;;137.70;;
19569;SDS011;9931;51.458;7.256;2024-03-08T03:27:54;61.45;;;55.25;;
19569;SDS011;9931;51.458;7.256;2024-03-08T03:30:21;61.40;;;54.35;;
19569;SDS011;9931;51.458;7.256;2024-03-08T03:32:47;149.02;;;131.23;;
19569;SDS011;9931;51.458;7.256;2024-03-08T03:35:13;107.93;;;94.88;;
19569;SDS011;9931;51.458;7.256;2024-03-08T03:37:39;32.65;;;17.80;;
19569;SDS011;9931;51.458;7.256;2024-03-08T03:40:07;79.97;;;73.63;;
19569;SDS011;9931;51.458;7.256;2024-03-08T03:42:33;76.90;;;70.32;;
19569;SDS011;9931;51.458;7.256;2024-03-08T03:44:59;113.00;;;102.97;;
19569;SDS011;9931;51.458;7.256;2024-03-08T03:47:24;100.18;;;92.05;;
19569;SDS011;9931;51.458;7.256;2024-03-08T03:49:49;97.88;;;87.70;;
19569;SDS011;9931;51.458;7.256;2024-03-08T03:52:14;98.23;;;89.90;;
19569;SDS011;9931;51.458;7.256;2024-03-08T03:54:40;65.10;;;52.42;;
19569;SDS011;9931;51.458;7.256;2024-03-08T03:57:05;52.67;;;48.83;;
19569;SDS011;9931;51.458;7.256;2024-03-08T03:59:32;69.30;;;62.88;;
19569;SDS011;9931;51.458;7.256;2024-03-08T04:01:57;52.97;;;48.37;;
19569;SDS011;9931;51.458;7.256;2024-03-08T04:04:23;60.10;;;54.95;;
19569;SDS011;9931;51.458;7.256;2024-03-08T04:06:49;108.15;;;99.30;;
19569;SDS011;9931;51.458;7.256;2024-03-08T04:09:16;115.72;;;104.93;;
19569;SDS011;9931;51.458;7.256;2024-03-08T04:11:43;109.25;;;101.50;;
19569;SDS011;9931;51.458;7.256;2024-03-08T04:14:08;49.60;;;44.90;;
19569;SDS011;9931;51.458;7.256;2024-03-08T04:16:34;67.20;;;60.40;;
19569;SDS011;9931;51.458;7.256;2024-03-08T04:18:59;70.85;;;64.47;;
19569;SDS011;9931;51.458;7.256;2024-03-08T04:21:29;45.63;;;40.80;;
19569;SDS011;9931;51.458;7.256;2024-03-08T04:23:55;30.35;;;15.40;;
19569;SDS011;9931;51.458;7.256;2024-03-08T04:26:20;108.03;;;98.97;;
19569;SDS011;9931;51.458;7.256;2024-03-08T04:28:45;65.75;;;59.92;;
19569;SDS011;9931;51.458;7.256;2024-03-08T04:31:11;92.40;;;84.78;;
19569;SDS011;9931;51.458;7.256;2024-03-08T04:33:36;32.45;;;15.38;;
19569;SDS011;9931;51.458;7.256;2024-03-08T04:36:01;28.70;;;14.48;;
19569;SDS011;9931;51.458;7.256;2024-03-08T04:38:29;56.80;;;16.92;;
19569;SDS011;9931;51.458;7.256;2024-03-08T04:40:55;22.48;;;14.93;;
19569;SDS011;9931;51.458;7.256;2024-03-08T04:43:20;16.97;;;15.17;;
19569;SDS011;9931;51.458;7.256;2024-03-08T04:45:46;16.80;;;14.98;;
19569;SDS011;9931;51.458;7.256;2024-03-08T04:48:11;34.65;;;15.88;;
19569;SDS011;9931;51.458;7.256;2024-03-08T04:50:36;49.35;;;16.75;;
19569;SDS011;9931;51.458;7.256;2024-03-08T04:53:03;20.30;;;15.75;;
19569;SDS011;9931;51.458;7.256;2024-03-08T04:55:28;33.45;;;16.25;;
19569;SDS011;9931;51.458;7.256;2024-03-08T04:57:54;67.75;;;18.17;;
19569;SDS011;9931;51.458;7.256;2024-03-08T05:00:19;48.90;;;15.85;;
19569;SDS011;9931;51.458;7.256;2024-03-08T05:02:45;35.38;;;15.57;;
19569;SDS011;9931;51.458;7.256;2024-03-08T05:05:10;29.83;;;14.87;;
19569;SDS011;9931;51.458;7.256;2024-03-08T05:07:39;42.10;;;15.93;;
19569;SDS011;9931;51.458;7.256;2024-03-08T05:10:10;40.67;;;15.50;;
19569;SDS011;9931;51.458;7.256;2024-03-08T05:12:35;44.38;;;17.30;;
19569;SDS011;9931;51.458;7.256;2024-03-08T05:15:00;39.25;;;15.73;;
19569;SDS011;9931;51.458;7.256;2024-03-08T05:17:26;41.35;;;15.82;;
19569;SDS011;9931;51.458;7.256;2024-03-08T05:19:51;42.70;;;15.73;;
19569;SDS011;9931;51.458;7.256;2024-03-08T05:22:16;50.58;;;16.17;;
19569;SDS011;9931;51.458;7.256;2024-03-08T05:24:42;39.97;;;15.27;;
19569;SDS011;9931;51.458;7.256;2024-03-08T05:27:07;28.10;;;13.38;;
19569;SDS011;9931;51.458;7.256;2024-03-08T05:29:32;42.50;;;15.38;;
19569;SDS011;9931;51.458;7.256;2024-03-08T05:31:58;36.13;;;14.18;;
19569;SDS011;9931;51.458;7.256;2024-03-08T05:34:24;50.88;;;14.43;;
19569;SDS011;9931;51.458;7.256;2024-03-08T05:36:49;37.10;;;14.65;;
19569;SDS011;9931;51.458;7.256;2024-03-08T05:39:15;79.13;;;18.55;;
19569;SDS011;9931;51.458;7.256;2024-03-08T05:41:41;40.38;;;14.93;;
19569;SDS011;9931;51.458;7.256;2024-03-08T05:44:06;45.42;;;15.07;;
19569;SDS011;9931;51.458;7.256;2024-03-08T05:46:32;48.47;;;15.43;;
19569;SDS011;9931;51.458;7.256;2024-03-08T05:48:57;32.95;;;15.20;;
19569;SDS011;9931;51.458;7.256;2024-03-08T05:51:24;35.83;;;13.73;;
19569;SDS011;9931;51.458;7.256;2024-03-08T05:53:49;25.15;;;13.32;;
19569;SDS011;9931;51.458;7.256;2024-03-08T05:56:14;52.92;;;16.27;;
19569;SDS011;9931;51.458;7.256;2024-03-08T05:58:39;33.53;;;14.37;;
19569;SDS011;9931;51.458;7.256;2024-03-08T06:01:05;35.75;;;14.68;;
19569;SDS011;9931;51.458;7.256;2024-03-08T06:03:32;28.00;;;14.68;;
19569;SDS011;9931;51.458;7.256;2024-03-08T06:05:58;36.15;;;14.70;;
19569;SDS011;9931;51.458;7.256;2024-03-08T06:08:23;18.88;;;13.38;;
19569;SDS011;9931;51.458;7.256;2024-03-08T06:10:54;42.65;;;14.50;;
19569;SDS011;9931;51.458;7.256;2024-03-08T06:13:19;33.90;;;14.67;;
19569;SDS011;9931;51.458;7.256;2024-03-08T06:15:44;29.17;;;13.85;;
19569;SDS011;9931;51.458;7.256;2024-03-08T06:18:10;18.58;;;13.70;;
19569;SDS011;9931;51.458;7.256;2024-03-08T06:20:36;32.00;;;14.73;;
19569;SDS011;9931;51.458;7.256;2024-03-08T06:23:01;52.13;;;16.13;;
19569;SDS011;9931;51.458;7.256;2024-03-08T06:25:27;35.47;;;16.13;;
19569;SDS011;9931;51.458;7.256;2024-03-08T06:27:52;30.73;;;15.80;;
19569;SDS011;9931;51.458;7.256;2024-03-08T06:30:18;39.50;;;16.00;;
19569;SDS011;9931;51.458;7.256;2024-03-08T06:32:43;32.47;;;15.63;;
19569;SDS011;9931;51.458;7.256;2024-03-08T06:35:08;52.77;;;18.03;;
19569;SDS011;9931;51.458;7.256;2024-03-08T06:37:35;72.20;;;21.30;;
19569;SDS011;9931;51.458;7.256;2024-03-08T06:40:00;35.90;;;17.77;;
19569;SDS011;9931;51.458;7.256;2024-03-08T06:42:29;50.65;;;18.45;;
19569;SDS011;9931;51.458;7.256;2024-03-08T06:44:58;55.63;;;19.70;;
19569;SDS011;9931;51.458;7.256;2024-03-08T06:47:29;40.95;;;19.42;;
19569;SDS011;9931;51.458;7.256;2024-03-08T06:49:54;57.87;;;21.20;;
19569;SDS011;9931;51.458;7.256;2024-03-08T06:52:19;48.53;;;21.33;;
19569;SDS011;9931;51.458;7.256;2024-03-08T06:54:44;26.00;;;20.52;;
19569;SDS011;9931;51.458;7.256;2024-03-08T06:57:10;35.40;;;22.02;;
19569;SDS011;9931;51.458;7.256;2024-03-08T06:59:35;59.05;;;25.33;;
19569;SDS011;9931;51.458;7.256;2024-03-08T07:02:01;55.50;;;24.92;;
19569;SDS011;9931;51.458;7.256;2024-03-08T07:04:26;47.53;;;23.58;;
19569;SDS011;9931;51.458;7.256;2024-03-08T07:06:54;50.83;;;24.65;;
19569;SDS011;9931;51.458;7.256;2024-03-08T07:09:20;95.68;;;28.67;;
19569;SDS011;9931;51.458;7.256;2024-03-08T07:11:45;63.40;;;27.50;;
19569;SDS011;9931;51.458;7.256;2024-03-08T07:14:11;49.63;;;25.52;;
19569;SDS011;9931;51.458;7.256;2024-03-08T07:16:36;46.03;;;25.27;;
19569;SDS011;9931;51.458;7.256;2024-03-08T07:19:02;40.88;;;25.65;;
19569;SDS011;9931;51.458;7.256;2024-03-08T07:21:28;64.30;;;24.80;;
19569;SDS011;9931;51.458;7.256;2024-03-08T07:23:54;51.53;;;25.20;;
19569;SDS011;9931;51.458;7.256;2024-03-08T07:26:25;37.92;;;24.90;;
19569;SDS011;9931;51.458;7.256;2024-03-08T07:28:50;49.23;;;25.27;;
19569;SDS011;9931;51.458;7.256;2024-03-08T07:31:15;51.35;;;25.95;;
19569;SDS011;9931;51.458;7.256;2024-03-08T07:33:56;64.53;;;26.35;;
19569;SDS011;9931;51.458;7.256;2024-03-08T07:36:21;42.05;;;21.50;;
19569;SDS011;9931;51.458;7.256;2024-03-08T07:38:47;65.63;;;28.00;;
19569;SDS011;9931;51.458;7.256;2024-03-08T07:41:12;55.13;;;26.95;;
19569;SDS011;9931;51.458;7.256;2024-03-08T07:43:38;74.07;;;28.50;;
19569;SDS011;9931;51.458;7.256;2024-03-08T07:46:03;72.32;;;29.10;;
19569;SDS011;9931;51.458;7.256;2024-03-08T07:48:28;60.38;;;27.83;;
19569;SDS011;9931;51.458;7.256;2024-03-08T07:50:53;40.78;;;21.88;;
19569;SDS011;9931;51.458;7.256;2024-03-08T07:53:19;47.17;;;22.70;;
19569;SDS011;9931;51.458;7.256;2024-03-08T07:55:44;49.72;;;24.83;;
19569;SDS011;9931;51.458;7.256;2024-03-08T07:58:09;48.20;;;21.42;;
19569;SDS011;9931;51.458;7.256;2024-03-08T08:00:36;48.13;;;23.25;;
19569;SDS011;9931;51.458;7.256;2024-03-08T08:03:01;47.38;;;25.45;;
19569;SDS011;9931;51.458;7.256;2024-03-08T08:05:26;59.83;;;27.73;;
19569;SDS011;9931;51.458;7.256;2024-03-08T08:07:52;67.03;;;31.65;;
19569;SDS011;9931;51.458;7.256;2024-03-08T08:10:18;59.35;;;32.20;;
19569;SDS011;9931;51.458;7.256;2024-03-08T08:12:50;52.75;;;30.42;;
19569;SDS011;9931;51.458;7.256;2024-03-08T08:15:16;61.15;;;31.02;;
19569;SDS011;9931;51.458;7.256;2024-03-08T08:17:42;58.60;;;32.50;;
19569;SDS011;9931;51.458;7.256;2024-03-08T08:20:07;62.17;;;33.78;;
19569;SDS011;9931;51.458;7.256;2024-03-08T08:22:32;85.35;;;33.42;;
19569;SDS011;9931;51.458;7.256;2024-03-08T08:24:58;58.93;;;31.53;;
19569;SDS011;9931;51.458;7.256;2024-03-08T08:27:23;62.88;;;32.95;;
19569;SDS011;9931;51.458;7.256;2024-03-08T08:29:51;62.90;;;32.47;;
19569;SDS011;9931;51.458;7.256;2024-03-08T08:32:16;77.10;;;33.37;;
19569;SDS011;9931;51.458;7.256;2024-03-08T08:34:41;76.82;;;33.40;;
19569;SDS011;9931;51.458;7.256;2024-03-08T08:37:08;67.45;;;34.47;;
19569;SDS011;9931;51.458;7.256;2024-03-08T08:39:34;59.22;;;32.00;;
19569;SDS011;9931;51.458;7.256;2024-03-08T08:42:00;52.38;;;32.55;;
19569;SDS011;9931;51.458;7.256;2024-03-08T08:44:25;72.85;;;33.03;;
19569;SDS011;9931;51.458;7.256;2024-03-08T08:46:50;81.13;;;33.95;;
19569;SDS011;9931;51.458;7.256;2024-03-08T08:49:16;94.03;;;36.40;;
19569;SDS011;9931;51.458;7.256;2024-03-08T08:51:48;47.22;;;31.63;;
19569;SDS011;9931;51.458;7.256;2024-03-08T08:54:13;62.00;;;33.55;;
19569;SDS011;9931;51.458;7.256;2024-03-08T08:56:41;61.10;;;32.88;;
19569;SDS011;9931;51.458;7.256;2024-03-08T08:59:08;65.65;;;33.63;;
19569;SDS011;9931;51.458;7.256;2024-03-08T09:01:34;62.17;;;34.47;;
19569;SDS011;9931;51.458;7.256;2024-03-08T09:03:59;71.93;;;35.90;;
19569;SDS011;9931;51.458;7.256;2024-03-08T09:06:24;67.80;;;35.93;;
19569;SDS011;9931;51.458;7.256;2024-03-08T09:08:50;76.63;;;35.78;;
19569;SDS011;9931;51.458;7.256;2024-03-08T09:11:15;67.30;;;34.70;;
19569;SDS011;9931;51.458;7.256;2024-03-08T09:13:40;53.35;;;34.60;;
19569;SDS011;9931;51.458;7.256;2024-03-08T09:16:05;59.60;;;34.90;;
19569;SDS011;9931;51.458;7.256;2024-03-08T09:18:31;58.58;;;33.60;;
19569;SDS011;9931;51.458;7.256;2024-03-08T09:20:57;72.57;;;34.10;;
19569;SDS011;9931;51.458;7.256;2024-03-08T09:23:22;101.82;;;35.67;;
19569;SDS011;9931;51.458;7.256;2024-03-08T09:25:47;75.30;;;34.63;;
19569;SDS011;9931;51.458;7.256;2024-03-08T09:28:12;66.85;;;36.47;;
19569;SDS011;9931;51.458;7.256;2024-03-08T09:30:38;61.25;;;34.22;;
19569;SDS011;9931;51.458;7.256;2024-03-08T09:33:04;59.17;;;35.60;;
19569;SDS011;9931;51.458;7.256;2024-03-08T09:35:29;77.78;;;36.47;;
19569;SDS011;9931;51.458;7.256;2024-03-08T09:37:55;65.05;;;35.72;;
19569;SDS011;9931;51.458;7.256;2024-03-08T09:40:20;83.47;;;37.72;;
19569;SDS011;9931;51.458;7.256;2024-03-08T09:42:48;90.70;;;40.05;;
19569;SDS011;9931;51.458;7.256;2024-03-08T09:45:14;79.85;;;37.72;;
19569;SDS011;9931;51.458;7.256;2024-03-08T09:47:42;71.90;;;35.28;;
19569;SDS011;9931;51.458;7.256;2024-03-08T09:50:08;71.82;;;36.90;;
19569;SDS011;9931;51.458;7.256;2024-03-08T09:52:35;64.15;;;36.63;;
19569;SDS011;9931;51.458;7.256;2024-03-08T09:55:00;77.32;;;46.88;;
19569;SDS011;9931;51.458;7.256;2024-03-08T09:57:26;73.95;;;48.95;;
19569;SDS011;9931;51.458;7.256;2024-03-08T09:59:51;90.47;;;52.58;;
19569;SDS011;9931;51.458;7.256;2024-03-08T10:02:17;76.97;;;39.35;;
19569;SDS011;9931;51.458;7.256;2024-03-08T10:04:42;83.85;;;40.55;;
19569;SDS011;9931;51.458;7.256;2024-03-08T10:07:07;92.28;;;39.60;;
19569;SDS011;9931;51.458;7.256;2024-03-08T10:09:33;64.00;;;38.15;;
19569;SDS011;9931;51.458;7.256;2024-03-08T10:11:58;95.07;;;39.63;;
19569;SDS011;9931;51.458;7.256;2024-03-08T10:14:24;81.70;;;40.25;;
19569;SDS011;9931;51.458;7.256;2024-03-08T10:16:49;75.57;;;39.20;;
19569;SDS011;9931;51.458;7.256;2024-03-08T10:19:14;127.95;;;44.13;;
19569;SDS011;9931;51.458;7.256;2024-03-08T10:21:47;81.18;;;41.00;;
19569;SDS011;9931;51.458;7.256;2024-03-08T10:24:13;114.22;;;54.88;;
19569;SDS011;9931;51.458;7.256;2024-03-08T10:26:39;89.80;;;41.83;;
19569;SDS011;9931;51.458;7.256;2024-03-08T10:29:04;100.18;;;41.72;;
19569;SDS011;9931;51.458;7.256;2024-03-08T10:31:29;86.50;;;39.80;;
19569;SDS011;9931;51.458;7.256;2024-03-08T10:33:57;96.65;;;41.15;;
19569;SDS011;9931;51.458;7.256;2024-03-08T10:36:22;108.72;;;42.13;;
19569;SDS011;9931;51.458;7.256;2024-03-08T10:38:47;83.65;;;40.72;;
19569;SDS011;9931;51.458;7.256;2024-03-08T10:41:15;92.68;;;42.42;;
19569;SDS011;9931;51.458;7.256;2024-03-08T10:48:41;84.97;;;41.78;;
19569;SDS011;9931;51.458;7.256;2024-03-08T10:51:08;97.90;;;44.28;;
19569;SDS011;9931;51.458;7.256;2024-03-08T10:53:36;107.50;;;62.33;;
19569;SDS011;9931;51.458;7.256;2024-03-08T10:56:02;107.88;;;78.38;;
19569;SDS011;9931;51.458;7.256;2024-03-08T10:58:27;116.72;;;101.45;;
19569;SDS011;9931;51.458;7.256;2024-03-08T11:00:53;132.95;;;100.30;;
19569;SDS011;9931;51.458;7.256;2024-03-08T11:06:03;134.55;;;102.40;;
19569;SDS011;9931;51.458;7.256;2024-03-08T11:08:28;132.35;;;89.45;;
19569;SDS011;9931;51.458;7.256;2024-03-08T11:10:56;117.38;;;71.78;;
19569;SDS011;9931;51.458;7.256;2024-03-08T11:13:37;151.20;;;126.90;;
19569;SDS011;9931;51.458;7.256;2024-03-08T11:16:07;140.55;;;87.22;;
19569;SDS011;9931;51.458;7.256;2024-03-08T11:18:32;151.55;;;134.98;;
19569;SDS011;9931;51.458;7.256;2024-03-08T11:20:58;139.35;;;109.38;;
19569;SDS011;9931;51.458;7.256;2024-03-08T11:23:23;161.77;;;145.35;;
19569;SDS011;9931;51.458;7.256;2024-03-08T11:25:51;141.05;;;111.75;;
19569;SDS011;9931;51.458;7.256;2024-03-08T11:28:20;126.68;;;85.60;;
19569;SDS011;9931;51.458;7.256;2024-03-08T11:30:47;136.05;;;105.97;;
19569;SDS011;9931;51.458;7.256;2024-03-08T11:33:34;127.18;;;106.70;;
19569;SDS011;9931;51.458;7.256;2024-03-08T11:36:11;162.27;;;145.23;;
19569;SDS011;9931;51.458;7.256;2024-03-08T11:38:41;132.27;;;108.57;;
19569;SDS011;9931;51.458;7.256;2024-03-08T11:41:07;146.88;;;102.15;;
19569;SDS011;9931;51.458;7.256;2024-03-08T11:43:33;137.20;;;101.80;;
19569;SDS011;9931;51.458;7.256;2024-03-08T11:46:07;138.93;;;99.53;;
19569;SDS011;9931;51.458;7.256;2024-03-08T11:48:33;112.40;;;49.17;;
19569;SDS011;9931;51.458;7.256;2024-03-08T11:51:00;122.97;;;50.75;;
19569;SDS011;9931;51.458;7.256;2024-03-08T11:53:26;103.30;;;48.75;;
19569;SDS011;9931;51.458;7.256;2024-03-08T11:55:51;102.13;;;48.43;;
19569;SDS011;9931;51.458;7.256;2024-03-08T11:58:16;105.47;;;48.27;;
19569;SDS011;9931;51.458;7.256;2024-03-08T12:00:42;102.10;;;49.22;;
19569;SDS011;9931;51.458;7.256;2024-03-08T12:03:08;131.95;;;50.55;;
19569;SDS011;9931;51.458;7.256;2024-03-08T12:05:34;116.82;;;53.05;;
19569;SDS011;9931;51.458;7.256;2024-03-08T12:08:01;101.45;;;48.63;;
19569;SDS011;9931;51.458;7.256;2024-03-08T12:10:27;100.40;;;47.97;;
19569;SDS011;9931;51.458;7.256;2024-03-08T12:12:53;135.55;;;50.33;;
19569;SDS011;9931;51.458;7.256;2024-03-08T12:15:19;119.50;;;49.30;;
19569;SDS011;9931;51.458;7.256;2024-03-08T12:17:45;126.88;;;54.78;;
19569;SDS011;9931;51.458;7.256;2024-03-08T12:20:16;104.65;;;51.25;;
19569;SDS011;9931;51.458;7.256;2024-03-08T12:22:42;100.63;;;51.50;;
19569;SDS011;9931;51.458;7.256;2024-03-08T12:25:07;118.25;;;53.92;;
19569;SDS011;9931;51.458;7.256;2024-03-08T12:27:35;146.35;;;58.05;;
19569;SDS011;9931;51.458;7.256;2024-03-08T12:30:14;126.00;;;56.33;;
19569;SDS011;9931;51.458;7.256;2024-03-08T12:32:40;116.97;;;52.58;;
19569;SDS011;9931;51.458;7.256;2024-03-08T12:35:07;123.38;;;52.28;;
19569;SDS011;9931;51.458;7.256;2024-03-08T12:37:32;125.20;;;52.58;;
19569;SDS011;9931;51.458;7.256;2024-03-08T12:39:57;108.33;;;51.07;;
19569;SDS011;9931;51.458;7.256;2024-03-08T12:42:23;101.72;;;50.10;;
19569;SDS011;9931;51.458;7.256;2024-03-08T12:44:48;110.43;;;50.42;;
19569;SDS011;9931;51.458;7.256;2024-03-08T12:47:14;119.85;;;51.95;;
19569;SDS011;9931;51.458;7.256;2024-03-08T12:49:39;101.37;;;49.40;;
19569;SDS011;9931;51.458;7.256;2024-03-08T12:52:08;98.80;;;47.65;;
19569;SDS011;9931;51.458;7.256;2024-03-08T12:54:34;127.93;;;52.83;;
19569;SDS011;9931;51.458;7.256;2024-03-08T12:56:59;120.88;;;53.08;;
19569;SDS011;9931;51.458;7.256;2024-03-08T12:59:24;143.43;;;53.88;;
19569;SDS011;9931;51.458;7.256;2024-03-08T13:01:50;110.70;;;51.50;;
19569;SDS011;9931;51.458;7.256;2024-03-08T13:04:17;117.47;;;52.55;;
19569;SDS011;9931;51.458;7.256;2024-03-08T13:06:43;109.47;;;53.33;;
19569;SDS011;9931;51.458;7.256;2024-03-08T13:09:11;127.63;;;54.65;;
19569;SDS011;9931;51.458;7.256;2024-03-08T13:11:36;117.47;;;53.45;;
19569;SDS011;9931;51.458;7.256;2024-03-08T13:14:04;114.50;;;51.67;;
19569;SDS011;9931;51.458;7.256;2024-03-08T13:16:33;102.22;;;50.40;;
19569;SDS011;9931;51.458;7.256;2024-03-08T13:18:59;99.35;;;50.83;;
19569;SDS011;9931;51.458;7.256;2024-03-08T13:21:24;107.60;;;50.57;;
19569;SDS011;9931;51.458;7.256;2024-03-08T13:23:50;106.05;;;49.25;;
19569;SDS011;9931;51.458;7.256;2024-03-08T13:26:16;114.07;;;50.15;;
19569;SDS011;9931;51.458;7.256;2024-03-08T13:28:42;122.38;;;52.80;;
19569;SDS011;9931;51.458;7.256;2024-03-08T13:31:07;114.15;;;53.40;;
19569;SDS011;9931;51.458;7.256;2024-03-08T13:33:35;111.10;;;52.63;;
19569;SDS011;9931;51.458;7.256;2024-03-08T13:36:01;112.90;;;52.20;;
19569;SDS011;9931;51.458;7.256;2024-03-08T13:38:26;113.97;;;53.17;;
19569;SDS011;9931;51.458;7.256;2024-03-08T13:40:51;102.22;;;50.53;;
19569;SDS011;9931;51.458;7.256;2024-03-08T13:43:17;123.13;;;52.33;;
19569;SDS011;9931;51.458;7.256;2024-03-08T13:45:42;109.93;;;52.72;;
19569;SDS011;9931;51.458;7.256;2024-03-08T13:48:08;97.28;;;50.25;;
19569;SDS011;9931;51.458;7.256;2024-03-08T13:50:37;107.20;;;50.92;;
19569;SDS011;9931;51.458;7.256;2024-03-08T13:53:02;102.80;;;49.60;;
19569;SDS011;9931;51.458;7.256;2024-03-08T13:55:28;116.57;;;52.28;;
19569;SDS011;9931;51.458;7.256;2024-03-08T13:57:53;147.20;;;56.20;;
19569;SDS011;9931;51.458;7.256;2024-03-08T14:00:19;119.70;;;54.58;;
19569;SDS011;9931;51.458;7.256;2024-03-08T14:02:49;111.85;;;52.40;;
19569;SDS011;9931;51.458;7.256;2024-03-08T14:05:15;107.43;;;50.83;;
19569;SDS011;9931;51.458;7.256;2024-03-08T14:07:41;114.07;;;50.63;;
19569;SDS011;9931;51.458;7.256;2024-03-08T14:10:06;106.60;;;49.13;;
19569;SDS011;9931;51.458;7.256;2024-03-08T14:12:32;93.22;;;48.17;;
19569;SDS011;9931;51.458;7.256;2024-03-08T14:14:57;103.82;;;49.63;;
19569;SDS011;9931;51.458;7.256;2024-03-08T14:17:25;110.35;;;50.08;;
19569;SDS011;9931;51.458;7.256;2024-03-08T14:19:52;104.18;;;50.40;;
19569;SDS011;9931;51.458;7.256;2024-03-08T14:22:17;111.65;;;49.53;;
19569;SDS011;9931;51.458;7.256;2024-03-08T14:24:42;106.68;;;50.83;;
19569;SDS011;9931;51.458;7.256;2024-03-08T14:27:08;116.15;;;51.20;;
19569;SDS011;9931;51.458;7.256;2024-03-08T14:29:34;109.10;;;50.97;;